createdAt,value
2023-12-08T00:01:14.565Z,10.07
2023-12-08T00:03:44.213Z,13.45
2023-12-08T00:06:12.977Z,14.07
2023-12-08T00:08:41.805Z,12.75
2023-12-08T00:11:12.269Z,11.10
2023-12-08T00:13:40.325Z,12.48
2023-12-08T00:16:09.933Z,11.20
2023-12-08T00:18:39.146Z,9.00
2023-12-08T00:21:09.137Z,8.77
2023-12-08T00:23:37.355Z,10.07
2023-12-08T00:26:05.643Z,12.45
2023-12-08T00:28:33.697Z,7.82
2023-12-08T00:31:01.735Z,7.15
2023-12-08T00:33:30.193Z,9.02
2023-12-08T00:35:59.100Z,8.18
2023-12-08T00:38:28.936Z,9.98
2023-12-08T00:40:57.916Z,14.18
2023-12-08T00:43:25.975Z,13.90
2023-12-08T00:45:53.957Z,7.93
2023-12-08T00:48:22.188Z,11.32
2023-12-08T00:50:50.502Z,12.68
2023-12-08T00:53:19.610Z,10.02
2023-12-08T00:55:52.582Z,10.57
2023-12-08T00:58:20.588Z,10.95
2023-12-08T01:00:48.799Z,14.32
2023-12-08T01:03:16.952Z,12.05
2023-12-08T01:05:44.955Z,10.35
2023-12-08T01:08:13.050Z,17.30
2023-12-08T01:10:41.200Z,9.27
2023-12-08T01:13:10.546Z,13.32
2023-12-08T01:15:38.574Z,6.35
2023-12-08T01:18:07.171Z,7.00
2023-12-08T01:20:42.739Z,5.95
2023-12-08T01:23:10.769Z,7.15
2023-12-08T01:25:38.859Z,7.35
2023-12-08T01:28:06.930Z,8.80
2023-12-08T01:30:36.348Z,11.50
2023-12-08T01:33:04.665Z,10.20
2023-12-08T01:35:32.793Z,6.93
2023-12-08T01:38:00.740Z,10.18
2023-12-08T01:40:28.703Z,8.48
2023-12-08T01:42:56.700Z,7.38
2023-12-08T01:45:24.656Z,13.35
2023-12-08T01:47:54.124Z,6.70
2023-12-08T01:50:22.172Z,13.00
2023-12-08T01:52:50.302Z,9.82
2023-12-08T01:55:18.445Z,13.43
2023-12-08T01:57:46.406Z,12.43
2023-12-08T02:00:15.658Z,11.10
2023-12-08T02:02:44.676Z,7.50
2023-12-08T02:05:14.352Z,7.35
2023-12-08T02:07:42.322Z,9.07
2023-12-08T02:10:10.424Z,7.55
2023-12-08T02:12:38.413Z,5.68
2023-12-08T02:15:07.339Z,5.88
2023-12-08T02:17:39.503Z,5.47
2023-12-08T02:20:10.633Z,5.80
2023-12-08T02:22:40.057Z,7.22
2023-12-08T02:25:10.336Z,9.05
2023-12-08T02:27:38.319Z,9.70
2023-12-08T02:30:07.792Z,10.63
2023-12-08T02:32:39.496Z,7.70
2023-12-08T02:35:10.111Z,8.98
2023-12-08T02:37:39.913Z,6.28
2023-12-08T02:40:10.588Z,9.93
2023-12-08T02:42:38.766Z,5.80
2023-12-08T02:45:08.045Z,9.63
2023-12-08T02:47:36.083Z,5.07
2023-12-08T02:50:04.623Z,7.25
2023-12-08T02:52:32.663Z,11.23
2023-12-08T02:55:00.604Z,7.82
2023-12-08T02:57:30.210Z,7.70
2023-12-08T02:59:58.242Z,9.70
2023-12-08T03:02:26.338Z,9.00
2023-12-08T03:04:57.034Z,6.35
2023-12-08T03:07:25.539Z,7.35
2023-12-08T03:09:53.760Z,8.38
2023-12-08T03:12:21.797Z,8.57
2023-12-08T03:14:51.237Z,10.98
2023-12-08T03:17:19.306Z,6.95
2023-12-08T03:19:47.432Z,6.70
2023-12-08T03:22:15.449Z,6.93
2023-12-08T03:24:43.461Z,8.75
2023-12-08T03:27:13.820Z,6.45
2023-12-08T03:29:42.440Z,7.15
2023-12-08T03:32:11.780Z,7.10
2023-12-08T03:34:40.049Z,9.55
2023-12-08T03:37:07.985Z,6.80
2023-12-08T03:39:35.996Z,9.48
2023-12-08T03:42:04.172Z,9.68
2023-12-08T03:44:32.253Z,8.70
2023-12-08T03:47:00.217Z,7.80
2023-12-08T03:49:29.695Z,7.72
2023-12-08T03:51:57.672Z,14.95
2023-12-08T03:54:25.685Z,6.43
2023-12-08T03:56:53.789Z,11.25
2023-12-08T03:59:21.898Z,10.60
2023-12-08T04:01:53.525Z,9.05
2023-12-08T04:04:26.092Z,10.05
2023-12-08T04:06:56.890Z,7.60
2023-12-08T04:09:26.768Z,7.72
2023-12-08T04:11:56.348Z,10.05
2023-12-08T04:14:24.358Z,11.55
2023-12-08T04:16:52.898Z,12.45
2023-12-08T04:19:22.075Z,8.98
2023-12-08T04:21:50.347Z,11.05
2023-12-08T04:24:19.882Z,10.82
2023-12-08T04:26:48.067Z,7.95
2023-12-08T04:29:16.087Z,11.45
2023-12-08T04:31:46.580Z,11.57
2023-12-08T04:34:14.772Z,8.75
2023-12-08T04:36:42.787Z,12.90
2023-12-08T04:39:10.989Z,7.88
2023-12-08T04:41:42.825Z,10.00
2023-12-08T04:44:10.864Z,9.10
2023-12-08T04:46:38.798Z,9.10
2023-12-08T04:49:07.008Z,10.10
2023-12-08T04:51:36.698Z,11.52
2023-12-08T04:54:04.954Z,7.70
2023-12-08T04:56:33.322Z,18.23
2023-12-08T04:59:02.703Z,10.07
2023-12-08T05:01:30.708Z,8.05
2023-12-08T05:03:59.335Z,9.55
2023-12-08T05:06:27.915Z,8.05
2023-12-08T05:08:56.078Z,10.90
2023-12-08T05:11:27.038Z,10.18
2023-12-08T05:13:54.997Z,6.88
2023-12-08T05:16:24.357Z,11.30
2023-12-08T05:18:52.404Z,31.98
2023-12-08T05:21:20.446Z,17.45
2023-12-08T05:23:48.491Z,15.13
2023-12-08T05:26:16.451Z,10.57
2023-12-08T05:28:44.463Z,12.23
2023-12-08T05:31:13.639Z,10.07
2023-12-08T05:33:43.722Z,12.73
2023-12-08T05:36:12.683Z,11.70
2023-12-08T05:38:40.799Z,11.68
2023-12-08T05:41:08.842Z,12.20
2023-12-08T05:43:36.799Z,16.35
2023-12-08T05:46:04.912Z,12.93
2023-12-08T05:48:33.092Z,20.40
2023-12-08T05:51:05.658Z,32.42
2023-12-08T05:53:33.817Z,21.08
2023-12-08T05:56:01.791Z,20.63
2023-12-08T05:58:30.192Z,20.02
2023-12-08T06:00:58.599Z,15.23
2023-12-08T06:03:26.703Z,17.27
2023-12-08T06:05:55.698Z,18.40
2023-12-08T06:08:25.118Z,29.70
2023-12-08T06:10:53.126Z,33.63
2023-12-08T06:13:21.260Z,28.83
2023-12-08T06:15:49.247Z,16.88
2023-12-08T06:18:17.410Z,24.48
2023-12-08T06:20:45.503Z,17.23
2023-12-08T06:23:13.567Z,24.17
2023-12-08T06:25:42.957Z,13.82
2023-12-08T06:28:11.123Z,22.70
2023-12-08T06:30:39.682Z,16.63
2023-12-08T06:33:08.066Z,19.05
2023-12-08T06:35:36.129Z,18.83
2023-12-08T06:38:05.842Z,16.73
2023-12-08T06:40:33.898Z,22.17
2023-12-08T06:43:06.490Z,21.17
2023-12-08T06:45:34.681Z,15.13
2023-12-08T06:48:03.035Z,16.80
2023-12-08T06:50:31.842Z,24.92
2023-12-08T06:52:59.951Z,16.35
2023-12-08T06:55:28.026Z,18.30
2023-12-08T06:57:55.967Z,15.52
2023-12-08T07:00:25.481Z,15.75
2023-12-08T07:02:54.906Z,13.98
2023-12-08T07:05:24.700Z,23.83
2023-12-08T07:07:53.192Z,16.80
2023-12-08T07:10:21.381Z,16.88
2023-12-08T07:12:49.758Z,21.98
2023-12-08T07:15:17.900Z,29.92
2023-12-08T07:17:47.565Z,28.55
2023-12-08T07:20:18.310Z,20.27
2023-12-08T07:22:46.334Z,19.00
2023-12-08T07:25:16.147Z,15.05
2023-12-08T07:27:44.684Z,14.55
2023-12-08T07:30:15.097Z,15.65
2023-12-08T07:32:43.818Z,16.77
2023-12-08T07:35:13.477Z,15.07
2023-12-08T07:37:42.372Z,17.23
2023-12-08T07:40:13.395Z,16.77
2023-12-08T07:42:43.086Z,13.85
2023-12-08T07:45:12.166Z,19.97
2023-12-08T07:47:40.659Z,15.23
2023-12-08T07:50:10.394Z,15.00
2023-12-08T07:52:40.159Z,16.08
2023-12-08T07:55:08.946Z,16.58
2023-12-08T07:57:37.176Z,28.13
2023-12-08T08:00:07.387Z,20.70
2023-12-08T08:02:35.570Z,19.63
2023-12-08T08:05:03.678Z,22.03
2023-12-08T08:07:32.307Z,21.00
2023-12-08T08:10:07.992Z,31.23
2023-12-08T08:12:36.128Z,28.70
2023-12-08T08:15:04.840Z,28.77
2023-12-08T08:17:33.159Z,44.97
2023-12-08T08:20:01.481Z,39.70
2023-12-08T08:22:32.963Z,41.07
2023-12-08T08:25:01.878Z,35.67
2023-12-08T08:27:33.280Z,23.90
2023-12-08T08:30:01.573Z,19.20
2023-12-08T08:32:29.981Z,32.27
2023-12-08T08:34:59.820Z,26.83
2023-12-08T08:37:30.934Z,27.30
2023-12-08T08:39:59.152Z,21.10
2023-12-08T08:42:27.493Z,18.07
2023-12-08T08:44:56.893Z,22.60
2023-12-08T08:47:25.086Z,21.37
2023-12-08T08:49:57.040Z,24.77
2023-12-08T08:52:25.313Z,24.77
2023-12-08T08:54:53.631Z,20.47
2023-12-08T08:57:21.674Z,20.03
2023-12-08T08:59:49.853Z,26.27
2023-12-08T09:02:19.157Z,19.90
2023-12-08T09:04:47.206Z,26.83
2023-12-08T09:07:15.437Z,18.43
2023-12-08T09:09:44.887Z,21.13
2023-12-08T09:12:15.236Z,19.00
2023-12-08T09:14:43.331Z,17.97
2023-12-08T09:17:11.346Z,22.10
2023-12-08T09:19:48.349Z,18.40
2023-12-08T09:22:16.732Z,21.63
2023-12-08T09:24:44.772Z,20.40
2023-12-08T09:27:12.834Z,25.73
2023-12-08T09:29:40.870Z,22.90
2023-12-08T09:32:09.233Z,18.87
2023-12-08T09:34:37.432Z,15.13
2023-12-08T09:37:26.427Z,15.50
2023-12-08T09:39:55.254Z,15.40
2023-12-08T09:42:29.592Z,15.30
2023-12-08T09:44:57.655Z,11.00
2023-12-08T09:47:28.887Z,10.57
2023-12-08T09:49:57.519Z,11.90
2023-12-08T09:52:26.873Z,11.43
2023-12-08T09:54:54.988Z,11.80
2023-12-08T09:57:23.735Z,9.83
2023-12-08T09:59:53.001Z,11.50
2023-12-08T10:02:21.029Z,11.83
2023-12-08T10:04:49.061Z,14.80
2023-12-08T10:07:17.123Z,13.20
2023-12-08T10:09:46.522Z,12.67
2023-12-08T10:12:14.822Z,15.37
2023-12-08T10:14:52.831Z,12.87
2023-12-08T10:17:21.512Z,11.93
2023-12-08T10:19:50.610Z,12.10
2023-12-08T10:22:19.797Z,12.83
2023-12-08T10:24:49.186Z,10.00
2023-12-08T10:27:17.182Z,10.20
2023-12-08T10:29:45.242Z,9.93
2023-12-08T10:32:15.997Z,8.80
2023-12-08T10:34:45.096Z,11.33
2023-12-08T10:37:13.104Z,8.80
2023-12-08T10:39:43.036Z,9.00
2023-12-08T10:42:12.856Z,11.20
2023-12-08T10:44:41.677Z,10.00
2023-12-08T10:47:09.761Z,8.67
2023-12-08T10:49:39.010Z,13.03
2023-12-08T10:52:08.359Z,10.87
2023-12-08T10:54:36.477Z,10.70
2023-12-08T10:57:04.496Z,14.10
2023-12-08T10:59:34.756Z,12.30
2023-12-08T11:02:05.329Z,14.43
2023-12-08T11:04:36.189Z,11.80
2023-12-08T11:07:12.924Z,12.17
2023-12-08T11:09:41.981Z,17.37
2023-12-08T11:12:10.863Z,13.13
2023-12-08T11:14:43.680Z,12.00
2023-12-08T11:17:18.948Z,15.17
2023-12-08T11:19:47.419Z,11.90
2023-12-08T11:22:15.567Z,12.07
2023-12-08T11:24:43.899Z,13.70
2023-12-08T11:27:17.145Z,10.70
2023-12-08T11:29:52.402Z,12.37
2023-12-08T11:32:22.877Z,11.50
2023-12-08T11:34:55.500Z,14.07
2023-12-08T11:37:24.586Z,13.90
2023-12-08T11:40:01.292Z,16.23
2023-12-08T11:42:29.997Z,14.17
2023-12-08T11:45:00.385Z,15.40
2023-12-08T11:47:28.904Z,16.83
2023-12-08T11:49:57.365Z,12.80
2023-12-08T11:52:28.257Z,15.03
2023-12-08T11:55:10.423Z,15.53
2023-12-08T11:57:43.703Z,16.00
2023-12-08T12:00:14.570Z,16.63
2023-12-08T12:02:43.888Z,16.00
2023-12-08T12:05:12.524Z,18.40
2023-12-08T12:07:40.871Z,20.77
2023-12-08T12:10:13.142Z,16.13
2023-12-08T12:12:43.890Z,14.70
2023-12-08T12:15:13.541Z,16.33
2023-12-08T12:17:43.041Z,16.43
2023-12-08T12:20:12.503Z,19.73
2023-12-08T12:22:41.124Z,20.20
2023-12-08T12:25:09.496Z,15.33
2023-12-08T12:27:40.475Z,16.30
2023-12-08T12:30:09.852Z,15.67
2023-12-08T12:32:39.629Z,18.77
2023-12-08T12:35:09.973Z,19.93
2023-12-08T12:37:38.039Z,26.40
2023-12-08T12:40:09.439Z,34.27
2023-12-08T12:42:42.953Z,23.73
2023-12-08T12:45:12.257Z,39.40
2023-12-08T12:47:42.438Z,71.10
2023-12-08T12:50:11.701Z,22.10
2023-12-08T12:52:41.901Z,18.30
2023-12-08T12:55:25.945Z,19.27
2023-12-08T12:57:54.117Z,24.63
2023-12-08T13:00:34.156Z,18.07
2023-12-08T13:03:11.817Z,20.27
2023-12-08T13:05:49.108Z,24.00
2023-12-08T13:08:18.278Z,17.57
2023-12-08T13:10:47.404Z,19.53
2023-12-08T13:13:15.641Z,20.27
2023-12-08T13:15:45.961Z,18.10
2023-12-08T13:18:16.620Z,20.37
2023-12-08T13:20:45.190Z,18.60
2023-12-08T13:23:13.727Z,40.63
2023-12-08T13:25:41.932Z,19.83
2023-12-08T13:28:10.695Z,26.30
2023-12-08T13:30:38.744Z,36.80
2023-12-08T13:33:07.832Z,34.60
2023-12-08T13:35:37.691Z,95.50
2023-12-08T13:38:05.981Z,33.50
2023-12-08T13:40:34.359Z,29.30
2023-12-08T13:43:03.030Z,27.23
2023-12-08T13:45:31.998Z,22.03
2023-12-08T13:48:00.750Z,22.30
2023-12-08T13:50:28.930Z,20.93
2023-12-08T13:52:58.869Z,21.33
2023-12-08T13:55:30.177Z,21.93
2023-12-08T13:58:01.465Z,22.20
2023-12-08T14:00:29.897Z,23.00
2023-12-08T14:02:58.387Z,22.37
2023-12-08T14:05:26.928Z,22.03
2023-12-08T14:07:55.392Z,22.37
2023-12-08T14:10:25.056Z,23.23
2023-12-08T14:12:53.250Z,23.47
2023-12-08T14:15:21.569Z,21.13
2023-12-08T14:17:50.033Z,20.63
2023-12-08T14:20:18.330Z,19.30
2023-12-08T14:22:47.619Z,35.80
2023-12-08T14:25:16.043Z,33.83
2023-12-08T14:27:45.746Z,21.73
2023-12-08T14:30:14.614Z,23.37
2023-12-08T14:32:43.007Z,21.90
2023-12-08T14:35:19.172Z,23.77
2023-12-08T14:37:54.725Z,20.30
2023-12-08T14:40:23.426Z,21.63
2023-12-08T14:42:54.899Z,18.23
2023-12-08T14:45:23.309Z,19.73
2023-12-08T14:47:51.681Z,23.47
2023-12-08T14:50:20.557Z,20.67
2023-12-08T14:52:48.843Z,19.70
2023-12-08T14:55:18.725Z,28.57
2023-12-08T14:57:47.113Z,31.97
2023-12-08T15:00:17.673Z,29.37
2023-12-08T15:02:45.884Z,25.87
2023-12-08T15:05:14.222Z,22.10
2023-12-08T15:07:43.072Z,22.73
2023-12-08T15:10:11.487Z,18.53
2023-12-08T15:12:39.614Z,23.90
2023-12-08T15:15:09.567Z,22.47
2023-12-08T15:17:39.749Z,21.63
2023-12-08T15:20:10.245Z,28.93
2023-12-08T15:22:40.912Z,24.23
2023-12-08T15:25:09.892Z,21.10
2023-12-08T15:27:38.305Z,20.70
2023-12-08T15:30:08.771Z,18.90
2023-12-08T15:32:38.316Z,20.90
2023-12-08T15:35:07.012Z,18.60
2023-12-08T15:37:35.078Z,17.50
2023-12-08T15:40:03.220Z,19.20
2023-12-08T15:42:31.260Z,20.60
2023-12-08T15:44:59.813Z,18.43
2023-12-08T15:47:28.172Z,16.53
2023-12-08T15:49:58.393Z,19.40
2023-12-08T15:52:26.607Z,40.80
2023-12-08T15:54:55.326Z,20.97
2023-12-08T15:57:23.593Z,25.50
2023-12-08T15:59:51.670Z,20.17
2023-12-08T16:02:20.403Z,22.47
2023-12-08T16:04:48.807Z,26.30
2023-12-08T16:07:18.252Z,25.50
2023-12-08T16:09:46.466Z,29.57
2023-12-08T16:12:14.487Z,20.53
2023-12-08T16:14:44.330Z,23.57
2023-12-08T16:17:14.481Z,21.50
2023-12-08T16:19:44.266Z,30.27
2023-12-08T16:22:12.598Z,22.83
2023-12-08T16:24:43.956Z,24.63
2023-12-08T16:27:12.127Z,24.83
2023-12-08T16:29:40.307Z,24.40
2023-12-08T16:32:08.276Z,23.10
2023-12-08T16:34:36.278Z,25.53
2023-12-08T16:37:05.347Z,24.70
2023-12-08T16:39:33.788Z,24.77
2023-12-08T16:42:03.322Z,27.13
2023-12-08T16:44:32.127Z,21.50
2023-12-08T16:47:00.137Z,22.10
2023-12-08T16:49:28.395Z,22.87
2023-12-08T16:51:56.480Z,21.07
2023-12-08T16:54:25.015Z,23.17
2023-12-08T16:56:54.597Z,21.23
2023-12-08T16:59:24.028Z,21.63
2023-12-08T17:01:51.944Z,21.63
2023-12-08T17:04:20.043Z,22.23
2023-12-08T17:06:48.090Z,23.50
2023-12-08T17:09:17.092Z,21.97
2023-12-08T17:11:48.175Z,25.07
2023-12-08T17:14:16.480Z,27.00
2023-12-08T17:16:46.373Z,23.47
2023-12-08T17:19:14.429Z,23.80
2023-12-08T17:21:42.489Z,21.50
2023-12-08T17:24:10.756Z,20.30
2023-12-08T17:26:40.892Z,23.97
2023-12-08T17:29:10.167Z,27.70
2023-12-08T17:31:38.722Z,25.30
2023-12-08T17:34:16.318Z,28.67
2023-12-08T17:36:49.899Z,26.77
2023-12-08T17:39:18.928Z,23.30
2023-12-08T17:41:48.178Z,22.57
2023-12-08T17:44:16.447Z,26.13
2023-12-08T17:46:44.507Z,23.10
2023-12-08T17:49:14.098Z,21.03
2023-12-08T17:51:42.280Z,23.43
2023-12-08T17:54:10.308Z,26.03
2023-12-08T17:56:38.333Z,21.23
2023-12-08T17:59:07.027Z,23.10
2023-12-08T18:01:35.023Z,28.33
2023-12-08T18:04:03.789Z,24.87
2023-12-08T18:06:33.789Z,28.73
2023-12-08T18:09:04.958Z,22.20
2023-12-08T18:11:33.775Z,24.23
2023-12-08T18:14:01.752Z,25.50
2023-12-08T18:16:31.216Z,24.00
2023-12-08T18:19:00.207Z,24.70
2023-12-08T18:21:29.973Z,23.60
2023-12-08T18:24:00.157Z,36.07
2023-12-08T18:26:29.121Z,28.17
2023-12-08T18:29:08.170Z,31.47
2023-12-08T18:31:39.334Z,28.43
2023-12-08T18:34:08.159Z,26.63
2023-12-08T18:36:36.967Z,31.77
2023-12-08T18:39:07.218Z,37.10
2023-12-08T18:41:36.487Z,31.30
2023-12-08T18:44:04.758Z,31.93
2023-12-08T18:46:34.210Z,34.13
2023-12-08T18:49:04.715Z,36.17
2023-12-08T18:51:34.848Z,35.93
2023-12-08T18:54:03.276Z,27.83
2023-12-08T18:56:33.234Z,28.23
2023-12-08T18:59:01.628Z,29.57
2023-12-08T19:01:29.899Z,33.43
2023-12-08T19:03:58.526Z,32.03
2023-12-08T19:06:26.699Z,30.57
2023-12-08T19:08:55.059Z,33.50
2023-12-08T19:11:23.100Z,42.70
2023-12-08T19:13:53.009Z,29.43
2023-12-08T19:16:21.410Z,30.00
2023-12-08T19:18:50.602Z,27.43
2023-12-08T19:21:18.733Z,30.10
2023-12-08T19:23:47.554Z,30.70
2023-12-08T19:26:16.007Z,29.80
2023-12-08T19:28:45.864Z,27.23
2023-12-08T19:31:16.071Z,30.07
2023-12-08T19:33:44.553Z,40.03
2023-12-08T19:36:16.140Z,34.10
2023-12-08T19:38:45.505Z,48.60
2023-12-08T19:41:13.796Z,59.27
2023-12-08T19:43:42.162Z,64.47
2023-12-08T19:46:10.699Z,45.33
2023-12-08T19:48:40.594Z,43.23
2023-12-08T19:51:09.148Z,37.90
2023-12-08T19:53:37.985Z,41.20
2023-12-08T19:56:07.128Z,42.70
2023-12-08T19:58:35.846Z,59.07
2023-12-08T20:01:06.409Z,70.97
2023-12-08T20:03:34.745Z,43.60
2023-12-08T20:06:05.109Z,40.37
2023-12-08T20:08:33.684Z,37.83
2023-12-08T20:11:02.467Z,36.03
2023-12-08T20:13:30.773Z,40.70
2023-12-08T20:15:59.115Z,38.17
2023-12-08T20:18:28.735Z,35.20
2023-12-08T20:20:57.236Z,36.70
2023-12-08T20:23:27.669Z,33.83
2023-12-08T20:25:55.888Z,32.73
2023-12-08T20:28:24.231Z,31.47
2023-12-08T20:30:52.540Z,31.17
2023-12-08T20:33:21.137Z,28.70
2023-12-08T20:35:49.565Z,32.47
2023-12-08T20:38:18.158Z,32.57
2023-12-08T20:40:48.647Z,35.00
2023-12-08T20:43:18.571Z,34.17
2023-12-08T20:45:48.681Z,34.90
2023-12-08T20:48:17.181Z,35.73
2023-12-08T20:50:45.621Z,35.20
2023-12-08T20:53:14.958Z,32.03
2023-12-08T20:55:43.278Z,34.97
2023-12-08T20:58:12.978Z,35.10
2023-12-08T21:00:41.935Z,28.90
2023-12-08T21:03:10.623Z,27.53
2023-12-08T21:05:39.064Z,27.97
2023-12-08T21:08:07.440Z,30.10
2023-12-08T21:10:36.234Z,32.87
2023-12-08T21:13:04.522Z,26.77
2023-12-08T21:15:34.429Z,31.87
2023-12-08T21:18:02.817Z,26.67
2023-12-08T21:20:31.058Z,31.00
2023-12-08T21:22:59.744Z,36.53
2023-12-08T21:25:27.728Z,34.90
2023-12-08T21:27:58.618Z,39.00
2023-12-08T21:30:27.021Z,37.53
2023-12-08T21:32:56.966Z,37.30
2023-12-08T21:35:27.148Z,36.00
2023-12-08T21:37:55.431Z,36.93
2023-12-08T21:40:23.487Z,36.30
2023-12-08T21:42:54.129Z,36.57
2023-12-08T21:45:22.772Z,34.47
2023-12-08T21:47:51.431Z,34.90
2023-12-08T21:50:21.440Z,38.07
2023-12-08T21:52:53.205Z,38.37
2023-12-08T21:55:22.137Z,35.93
2023-12-08T21:57:50.829Z,37.00
2023-12-08T22:00:19.607Z,40.00
2023-12-08T22:02:48.098Z,36.63
2023-12-08T22:05:16.903Z,34.13
2023-12-08T22:07:46.935Z,33.67
2023-12-08T22:10:15.193Z,38.83
2023-12-08T22:12:43.639Z,37.27
2023-12-08T22:15:12.445Z,34.87
2023-12-08T22:17:40.805Z,30.93
2023-12-08T22:20:10.659Z,34.07
2023-12-08T22:22:41.996Z,34.53
2023-12-08T22:25:12.642Z,34.90
2023-12-08T22:27:41.005Z,37.03
2023-12-08T22:30:10.323Z,40.93
2023-12-08T22:32:38.926Z,40.70
2023-12-08T22:35:08.603Z,42.03
2023-12-08T22:37:39.255Z,41.60
2023-12-08T22:40:09.124Z,43.23
2023-12-08T22:42:39.030Z,44.70
2023-12-08T22:45:08.592Z,40.70
2023-12-08T22:47:36.975Z,48.23
2023-12-08T22:50:05.881Z,39.47
2023-12-08T22:52:34.683Z,45.83
2023-12-08T22:55:03.103Z,39.60
2023-12-08T22:57:31.650Z,29.77
2023-12-08T23:00:01.800Z,36.80
2023-12-08T23:02:30.368Z,44.50
2023-12-08T23:04:58.965Z,30.80
2023-12-08T23:07:27.508Z,31.73
2023-12-08T23:09:56.473Z,26.87
2023-12-08T23:12:26.940Z,38.70
2023-12-08T23:14:55.512Z,50.97
2023-12-08T23:17:25.394Z,41.23
2023-12-08T23:19:53.755Z,37.40
2023-12-08T23:22:21.982Z,31.87
2023-12-08T23:24:50.556Z,31.20
2023-12-08T23:27:19.002Z,28.90
2023-12-08T23:29:47.548Z,30.40
2023-12-08T23:32:16.234Z,31.83
2023-12-08T23:34:45.761Z,30.60
2023-12-08T23:37:14.332Z,35.63
2023-12-08T23:39:42.678Z,32.10
2023-12-08T23:42:10.885Z,32.40
2023-12-08T23:44:39.243Z,33.03
2023-12-08T23:47:07.614Z,31.90
2023-12-08T23:49:36.308Z,31.90
2023-12-08T23:52:06.739Z,26.27
2023-12-08T23:54:35.022Z,32.87
2023-12-08T23:57:03.371Z,33.13
2023-12-08T23:59:31.745Z,38.80
